sensor_id;sensor_type;location;lat;lon;timestamp;P1;durP1;ratioP1;P2;durP2;ratioP2
8640;SDS011;4358;42.100;25.222;2023-12-14T00:01:16;43.13;;;25.50;;
8640;SDS011;4358;42.100;25.222;2023-12-14T00:03:44;44.43;;;25.37;;
8640;SDS011;4358;42.100;25.222;2023-12-14T00:06:11;41.27;;;25.33;;
8640;SDS011;4358;42.100;25.222;2023-12-14T00:08:38;44.80;;;25.63;;
8640;SDS011;4358;42.100;25.222;2023-12-14T00:11:06;44.87;;;24.87;;
8640;SDS011;4358;42.100;25.222;2023-12-14T00:13:33;40.97;;;24.00;;
8640;SDS011;4358;42.100;25.222;2023-12-14T00:16:00;51.40;;;26.33;;
8640;SDS011;4358;42.100;25.222;2023-12-14T00:18:28;45.10;;;25.43;;
8640;SDS011;4358;42.100;25.222;2023-12-14T00:21:28;45.83;;;24.60;;
8640;SDS011;4358;42.100;25.222;2023-12-14T00:24:03;46.57;;;24.57;;
8640;SDS011;4358;42.100;25.222;2023-12-14T00:26:30;48.03;;;25.63;;
8640;SDS011;4358;42.100;25.222;2023-12-14T00:28:57;49.27;;;28.50;;
8640;SDS011;4358;42.100;25.222;2023-12-14T00:31:32;47.67;;;27.40;;
8640;SDS011;4358;42.100;25.222;2023-12-14T00:34:29;39.50;;;23.43;;
8640;SDS011;4358;42.100;25.222;2023-12-14T00:36:57;54.57;;;28.40;;
8640;SDS011;4358;42.100;25.222;2023-12-14T00:39:24;71.03;;;36.53;;
8640;SDS011;4358;42.100;25.222;2023-12-14T00:41:51;62.70;;;35.37;;
8640;SDS011;4358;42.100;25.222;2023-12-14T00:44:18;65.50;;;33.70;;
8640;SDS011;4358;42.100;25.222;2023-12-14T00:46:45;54.97;;;32.23;;
8640;SDS011;4358;42.100;25.222;2023-12-14T00:49:12;54.33;;;32.27;;
8640;SDS011;4358;42.100;25.222;2023-12-14T00:51:39;54.87;;;31.80;;
8640;SDS011;4358;42.100;25.222;2023-12-14T00:54:07;45.27;;;27.63;;
8640;SDS011;4358;42.100;25.222;2023-12-14T00:56:34;40.40;;;25.93;;
8640;SDS011;4358;42.100;25.222;2023-12-14T00:59:01;43.93;;;26.10;;
8640;SDS011;4358;42.100;25.222;2023-12-14T01:01:28;43.67;;;26.20;;
8640;SDS011;4358;42.100;25.222;2023-12-14T01:03:55;42.50;;;24.87;;
8640;SDS011;4358;42.100;25.222;2023-12-14T01:06:24;51.10;;;27.60;;
8640;SDS011;4358;42.100;25.222;2023-12-14T01:08:51;42.33;;;25.20;;
8640;SDS011;4358;42.100;25.222;2023-12-14T01:11:19;45.63;;;28.13;;
8640;SDS011;4358;42.100;25.222;2023-12-14T01:13:46;47.83;;;28.70;;
8640;SDS011;4358;42.100;25.222;2023-12-14T01:16:13;46.67;;;27.20;;
8640;SDS011;4358;42.100;25.222;2023-12-14T01:18:40;46.13;;;27.33;;
8640;SDS011;4358;42.100;25.222;2023-12-14T01:21:07;42.77;;;27.53;;
8640;SDS011;4358;42.100;25.222;2023-12-14T01:23:35;45.10;;;28.33;;
8640;SDS011;4358;42.100;25.222;2023-12-14T01:26:02;43.43;;;27.00;;
8640;SDS011;4358;42.100;25.222;2023-12-14T01:28:30;44.00;;;26.87;;
8640;SDS011;4358;42.100;25.222;2023-12-14T01:30:57;42.80;;;25.77;;
8640;SDS011;4358;42.100;25.222;2023-12-14T01:33:24;44.10;;;26.67;;
8640;SDS011;4358;42.100;25.222;2023-12-14T01:35:51;35.47;;;24.00;;
8640;SDS011;4358;42.100;25.222;2023-12-14T01:38:18;43.80;;;24.30;;
8640;SDS011;4358;42.100;25.222;2023-12-14T01:40:45;41.63;;;23.37;;
8640;SDS011;4358;42.100;25.222;2023-12-14T01:43:12;47.70;;;24.27;;
8640;SDS011;4358;42.100;25.222;2023-12-14T01:45:40;57.07;;;27.43;;
8640;SDS011;4358;42.100;25.222;2023-12-14T01:48:07;58.63;;;25.73;;
8640;SDS011;4358;42.100;25.222;2023-12-14T01:50:34;40.13;;;23.00;;
8640;SDS011;4358;42.100;25.222;2023-12-14T01:53:01;59.93;;;28.40;;
8640;SDS011;4358;42.100;25.222;2023-12-14T01:55:28;42.73;;;25.67;;
8640;SDS011;4358;42.100;25.222;2023-12-14T01:57:55;43.47;;;23.67;;
8640;SDS011;4358;42.100;25.222;2023-12-14T02:00:26;36.23;;;22.83;;
8640;SDS011;4358;42.100;25.222;2023-12-14T02:03:02;33.80;;;21.90;;
8640;SDS011;4358;42.100;25.222;2023-12-14T02:05:29;33.13;;;21.07;;
8640;SDS011;4358;42.100;25.222;2023-12-14T02:07:56;36.77;;;20.50;;
8640;SDS011;4358;42.100;25.222;2023-12-14T02:10:24;33.53;;;20.43;;
8640;SDS011;4358;42.100;25.222;2023-12-14T02:12:50;35.77;;;19.70;;
8640;SDS011;4358;42.100;25.222;2023-12-14T02:15:17;39.40;;;20.80;;
8640;SDS011;4358;42.100;25.222;2023-12-14T02:17:45;35.43;;;20.80;;
8640;SDS011;4358;42.100;25.222;2023-12-14T02:20:13;36.20;;;21.20;;
8640;SDS011;4358;42.100;25.222;2023-12-14T02:22:51;38.97;;;22.00;;
8640;SDS011;4358;42.100;25.222;2023-12-14T02:25:19;37.03;;;22.23;;
8640;SDS011;4358;42.100;25.222;2023-12-14T02:27:53;42.53;;;28.47;;
8640;SDS011;4358;42.100;25.222;2023-12-14T02:30:37;68.30;;;48.80;;
8640;SDS011;4358;42.100;25.222;2023-12-14T02:33:04;58.70;;;37.23;;
8640;SDS011;4358;42.100;25.222;2023-12-14T02:35:31;60.67;;;37.27;;
8640;SDS011;4358;42.100;25.222;2023-12-14T02:37:59;46.77;;;30.20;;
8640;SDS011;4358;42.100;25.222;2023-12-14T02:40:26;41.07;;;28.60;;
8640;SDS011;4358;42.100;25.222;2023-12-14T02:42:53;40.60;;;26.87;;
8640;SDS011;4358;42.100;25.222;2023-12-14T02:45:20;40.57;;;23.77;;
8640;SDS011;4358;42.100;25.222;2023-12-14T02:47:47;32.97;;;20.60;;
8640;SDS011;4358;42.100;25.222;2023-12-14T02:50:15;33.33;;;21.80;;
8640;SDS011;4358;42.100;25.222;2023-12-14T02:52:42;33.03;;;20.90;;
8640;SDS011;4358;42.100;25.222;2023-12-14T02:55:10;37.20;;;21.83;;
8640;SDS011;4358;42.100;25.222;2023-12-14T02:57:37;37.80;;;23.33;;
8640;SDS011;4358;42.100;25.222;2023-12-14T03:00:05;34.80;;;22.73;;
8640;SDS011;4358;42.100;25.222;2023-12-14T03:02:32;89.90;;;61.50;;
8640;SDS011;4358;42.100;25.222;2023-12-14T03:05:00;49.30;;;26.37;;
8640;SDS011;4358;42.100;25.222;2023-12-14T03:07:27;71.60;;;35.23;;
8640;SDS011;4358;42.100;25.222;2023-12-14T03:09:54;67.37;;;26.13;;
8640;SDS011;4358;42.100;25.222;2023-12-14T03:12:22;50.80;;;25.33;;
8640;SDS011;4358;42.100;25.222;2023-12-14T03:14:49;57.67;;;28.67;;
8640;SDS011;4358;42.100;25.222;2023-12-14T03:17:16;43.67;;;24.83;;
8640;SDS011;4358;42.100;25.222;2023-12-14T03:19:44;44.10;;;22.37;;
8640;SDS011;4358;42.100;25.222;2023-12-14T03:22:12;38.43;;;20.97;;
8640;SDS011;4358;42.100;25.222;2023-12-14T03:24:38;42.57;;;21.20;;
8640;SDS011;4358;42.100;25.222;2023-12-14T03:27:05;70.00;;;27.03;;
8640;SDS011;4358;42.100;25.222;2023-12-14T03:29:34;37.10;;;21.23;;
8640;SDS011;4358;42.100;25.222;2023-12-14T03:32:01;27.90;;;19.23;;
8640;SDS011;4358;42.100;25.222;2023-12-14T03:34:28;28.70;;;18.13;;
8640;SDS011;4358;42.100;25.222;2023-12-14T03:36:55;30.93;;;19.13;;
8640;SDS011;4358;42.100;25.222;2023-12-14T03:39:22;28.13;;;18.20;;
8640;SDS011;4358;42.100;25.222;2023-12-14T03:41:49;27.17;;;17.77;;
8640;SDS011;4358;42.100;25.222;2023-12-14T03:44:16;28.37;;;18.23;;
8640;SDS011;4358;42.100;25.222;2023-12-14T03:46:44;33.07;;;19.00;;
8640;SDS011;4358;42.100;25.222;2023-12-14T03:49:11;30.50;;;18.93;;
8640;SDS011;4358;42.100;25.222;2023-12-14T03:51:38;29.27;;;17.57;;
8640;SDS011;4358;42.100;25.222;2023-12-14T03:54:05;31.70;;;17.77;;
8640;SDS011;4358;42.100;25.222;2023-12-14T03:56:32;32.00;;;17.70;;
8640;SDS011;4358;42.100;25.222;2023-12-14T03:58:59;26.93;;;17.27;;
8640;SDS011;4358;42.100;25.222;2023-12-14T04:01:26;29.40;;;18.83;;
8640;SDS011;4358;42.100;25.222;2023-12-14T04:03:54;32.50;;;18.90;;
8640;SDS011;4358;42.100;25.222;2023-12-14T04:06:21;29.33;;;17.90;;
8640;SDS011;4358;42.100;25.222;2023-12-14T04:08:48;28.77;;;18.30;;
8640;SDS011;4358;42.100;25.222;2023-12-14T04:11:15;27.07;;;17.90;;
8640;SDS011;4358;42.100;25.222;2023-12-14T04:13:42;30.23;;;19.93;;
8640;SDS011;4358;42.100;25.222;2023-12-14T04:16:09;33.43;;;20.57;;
8640;SDS011;4358;42.100;25.222;2023-12-14T04:18:36;31.23;;;19.37;;
8640;SDS011;4358;42.100;25.222;2023-12-14T04:21:06;37.83;;;21.87;;
8640;SDS011;4358;42.100;25.222;2023-12-14T04:23:33;41.77;;;23.13;;
8640;SDS011;4358;42.100;25.222;2023-12-14T04:26:00;36.43;;;24.43;;
8640;SDS011;4358;42.100;25.222;2023-12-14T04:28:27;39.33;;;24.23;;
8640;SDS011;4358;42.100;25.222;2023-12-14T04:30:54;43.03;;;26.80;;
8640;SDS011;4358;42.100;25.222;2023-12-14T04:33:20;44.70;;;26.10;;
8640;SDS011;4358;42.100;25.222;2023-12-14T04:35:47;40.23;;;24.43;;
8640;SDS011;4358;42.100;25.222;2023-12-14T04:38:16;38.57;;;26.10;;
8640;SDS011;4358;42.100;25.222;2023-12-14T04:40:43;39.87;;;26.00;;
8640;SDS011;4358;42.100;25.222;2023-12-14T04:43:10;40.77;;;27.73;;
8640;SDS011;4358;42.100;25.222;2023-12-14T04:45:37;49.47;;;29.73;;
8640;SDS011;4358;42.100;25.222;2023-12-14T04:48:05;47.33;;;29.10;;
8640;SDS011;4358;42.100;25.222;2023-12-14T04:50:32;61.70;;;37.30;;
8640;SDS011;4358;42.100;25.222;2023-12-14T04:52:59;100.50;;;57.57;;
8640;SDS011;4358;42.100;25.222;2023-12-14T04:55:27;93.07;;;55.67;;
8640;SDS011;4358;42.100;25.222;2023-12-14T04:57:54;87.27;;;53.73;;
8640;SDS011;4358;42.100;25.222;2023-12-14T05:00:21;77.53;;;46.60;;
8640;SDS011;4358;42.100;25.222;2023-12-14T05:02:48;84.20;;;47.50;;
8640;SDS011;4358;42.100;25.222;2023-12-14T05:05:16;72.40;;;42.10;;
8640;SDS011;4358;42.100;25.222;2023-12-14T05:07:43;89.93;;;40.20;;
8640;SDS011;4358;42.100;25.222;2023-12-14T05:10:09;72.77;;;39.83;;
8640;SDS011;4358;42.100;25.222;2023-12-14T05:12:38;66.80;;;39.73;;
8640;SDS011;4358;42.100;25.222;2023-12-14T05:15:05;81.10;;;38.83;;
8640;SDS011;4358;42.100;25.222;2023-12-14T05:17:33;70.50;;;34.57;;
8640;SDS011;4358;42.100;25.222;2023-12-14T05:20:02;66.03;;;35.83;;
8640;SDS011;4358;42.100;25.222;2023-12-14T05:22:30;65.60;;;37.73;;
8640;SDS011;4358;42.100;25.222;2023-12-14T05:24:57;59.60;;;36.00;;
8640;SDS011;4358;42.100;25.222;2023-12-14T05:27:24;51.87;;;30.70;;
8640;SDS011;4358;42.100;25.222;2023-12-14T05:29:52;57.30;;;32.93;;
8640;SDS011;4358;42.100;25.222;2023-12-14T05:32:19;57.17;;;31.83;;
8640;SDS011;4358;42.100;25.222;2023-12-14T05:34:46;55.30;;;30.07;;
8640;SDS011;4358;42.100;25.222;2023-12-14T05:37:14;67.80;;;34.80;;
8640;SDS011;4358;42.100;25.222;2023-12-14T05:39:41;70.37;;;38.43;;
8640;SDS011;4358;42.100;25.222;2023-12-14T05:42:10;66.33;;;35.03;;
8640;SDS011;4358;42.100;25.222;2023-12-14T05:44:37;72.80;;;38.77;;
8640;SDS011;4358;42.100;25.222;2023-12-14T05:47:05;73.53;;;41.67;;
8640;SDS011;4358;42.100;25.222;2023-12-14T05:49:32;68.73;;;42.77;;
8640;SDS011;4358;42.100;25.222;2023-12-14T05:51:59;97.43;;;52.00;;
8640;SDS011;4358;42.100;25.222;2023-12-14T05:54:26;91.80;;;45.57;;
8640;SDS011;4358;42.100;25.222;2023-12-14T05:56:53;89.53;;;49.17;;
8640;SDS011;4358;42.100;25.222;2023-12-14T05:59:20;100.23;;;51.87;;
8640;SDS011;4358;42.100;25.222;2023-12-14T06:01:47;84.43;;;50.20;;
8640;SDS011;4358;42.100;25.222;2023-12-14T06:04:16;67.20;;;44.53;;
8640;SDS011;4358;42.100;25.222;2023-12-14T06:06:43;61.47;;;39.97;;
8640;SDS011;4358;42.100;25.222;2023-12-14T06:09:10;48.73;;;30.57;;
8640;SDS011;4358;42.100;25.222;2023-12-14T06:11:37;40.47;;;26.07;;
8640;SDS011;4358;42.100;25.222;2023-12-14T06:14:04;42.60;;;25.30;;
8640;SDS011;4358;42.100;25.222;2023-12-14T06:16:31;39.43;;;24.20;;
8640;SDS011;4358;42.100;25.222;2023-12-14T06:18:58;43.37;;;27.03;;
8640;SDS011;4358;42.100;25.222;2023-12-14T06:21:26;57.40;;;35.57;;
8640;SDS011;4358;42.100;25.222;2023-12-14T06:23:54;70.40;;;40.60;;
8640;SDS011;4358;42.100;25.222;2023-12-14T06:26:21;49.97;;;34.73;;
8640;SDS011;4358;42.100;25.222;2023-12-14T06:28:48;45.67;;;29.13;;
8640;SDS011;4358;42.100;25.222;2023-12-14T06:31:18;57.40;;;34.93;;
8640;SDS011;4358;42.100;25.222;2023-12-14T06:33:46;56.40;;;34.97;;
8640;SDS011;4358;42.100;25.222;2023-12-14T06:36:15;50.03;;;32.37;;
8640;SDS011;4358;42.100;25.222;2023-12-14T06:38:44;44.67;;;29.10;;
8640;SDS011;4358;42.100;25.222;2023-12-14T06:41:17;42.60;;;26.43;;
8640;SDS011;4358;42.100;25.222;2023-12-14T06:43:45;37.63;;;25.63;;
8640;SDS011;4358;42.100;25.222;2023-12-14T06:46:12;40.80;;;24.40;;
8640;SDS011;4358;42.100;25.222;2023-12-14T06:48:38;52.03;;;33.33;;
8640;SDS011;4358;42.100;25.222;2023-12-14T06:51:06;76.87;;;40.03;;
8640;SDS011;4358;42.100;25.222;2023-12-14T06:53:33;90.17;;;45.13;;
8640;SDS011;4358;42.100;25.222;2023-12-14T06:56:02;73.10;;;38.33;;
8640;SDS011;4358;42.100;25.222;2023-12-14T06:58:34;62.87;;;34.20;;
8640;SDS011;4358;42.100;25.222;2023-12-14T07:01:01;67.03;;;35.70;;
8640;SDS011;4358;42.100;25.222;2023-12-14T07:03:29;74.80;;;31.70;;
8640;SDS011;4358;42.100;25.222;2023-12-14T07:05:56;79.17;;;36.70;;
8640;SDS011;4358;42.100;25.222;2023-12-14T07:08:23;111.60;;;43.07;;
8640;SDS011;4358;42.100;25.222;2023-12-14T07:10:51;90.37;;;39.00;;
8640;SDS011;4358;42.100;25.222;2023-12-14T07:13:19;71.30;;;36.40;;
8640;SDS011;4358;42.100;25.222;2023-12-14T07:15:46;46.13;;;27.83;;
8640;SDS011;4358;42.100;25.222;2023-12-14T07:18:13;47.30;;;27.13;;
8640;SDS011;4358;42.100;25.222;2023-12-14T07:20:40;46.17;;;28.00;;
8640;SDS011;4358;42.100;25.222;2023-12-14T07:23:07;40.50;;;25.83;;
8640;SDS011;4358;42.100;25.222;2023-12-14T07:25:34;47.07;;;27.53;;
8640;SDS011;4358;42.100;25.222;2023-12-14T07:28:01;49.90;;;28.73;;
8640;SDS011;4358;42.100;25.222;2023-12-14T07:30:30;43.13;;;27.47;;
8640;SDS011;4358;42.100;25.222;2023-12-14T07:32:57;52.47;;;29.03;;
8640;SDS011;4358;42.100;25.222;2023-12-14T07:35:24;51.33;;;30.63;;
8640;SDS011;4358;42.100;25.222;2023-12-14T07:37:51;68.33;;;36.67;;
8640;SDS011;4358;42.100;25.222;2023-12-14T07:40:18;65.77;;;35.60;;
8640;SDS011;4358;42.100;25.222;2023-12-14T07:42:45;65.90;;;35.33;;
8640;SDS011;4358;42.100;25.222;2023-12-14T07:45:12;54.50;;;33.53;;
8640;SDS011;4358;42.100;25.222;2023-12-14T07:47:40;40.97;;;28.40;;
8640;SDS011;4358;42.100;25.222;2023-12-14T07:50:08;43.00;;;27.83;;
8640;SDS011;4358;42.100;25.222;2023-12-14T07:52:35;48.90;;;32.60;;
8640;SDS011;4358;42.100;25.222;2023-12-14T07:55:02;44.73;;;30.33;;
8640;SDS011;4358;42.100;25.222;2023-12-14T07:57:30;57.97;;;33.33;;
8640;SDS011;4358;42.100;25.222;2023-12-14T07:59:57;43.10;;;27.30;;
8640;SDS011;4358;42.100;25.222;2023-12-14T08:02:24;39.37;;;26.63;;
8640;SDS011;4358;42.100;25.222;2023-12-14T08:04:52;40.10;;;27.73;;
8640;SDS011;4358;42.100;25.222;2023-12-14T08:07:19;42.97;;;28.57;;
8640;SDS011;4358;42.100;25.222;2023-12-14T08:09:46;48.93;;;29.07;;
8640;SDS011;4358;42.100;25.222;2023-12-14T08:12:13;51.00;;;29.97;;
8640;SDS011;4358;42.100;25.222;2023-12-14T08:14:41;59.83;;;31.60;;
8640;SDS011;4358;42.100;25.222;2023-12-14T08:17:09;40.97;;;26.03;;
8640;SDS011;4358;42.100;25.222;2023-12-14T08:19:36;37.90;;;26.17;;
8640;SDS011;4358;42.100;25.222;2023-12-14T08:22:10;44.57;;;28.20;;
8640;SDS011;4358;42.100;25.222;2023-12-14T08:24:37;42.97;;;27.77;;
8640;SDS011;4358;42.100;25.222;2023-12-14T08:27:04;43.40;;;26.87;;
8640;SDS011;4358;42.100;25.222;2023-12-14T08:29:31;44.73;;;29.70;;
8640;SDS011;4358;42.100;25.222;2023-12-14T08:31:58;45.33;;;27.67;;
8640;SDS011;4358;42.100;25.222;2023-12-14T08:34:26;43.37;;;28.17;;
8640;SDS011;4358;42.100;25.222;2023-12-14T08:36:54;43.10;;;29.90;;
8640;SDS011;4358;42.100;25.222;2023-12-14T08:39:22;38.70;;;25.57;;
8640;SDS011;4358;42.100;25.222;2023-12-14T08:41:49;40.40;;;28.10;;
8640;SDS011;4358;42.100;25.222;2023-12-14T08:44:16;36.07;;;25.93;;
8640;SDS011;4358;42.100;25.222;2023-12-14T08:46:44;34.83;;;24.20;;
8640;SDS011;4358;42.100;25.222;2023-12-14T08:49:12;40.70;;;27.73;;
8640;SDS011;4358;42.100;25.222;2023-12-14T08:51:40;42.63;;;27.33;;
8640;SDS011;4358;42.100;25.222;2023-12-14T08:54:08;39.43;;;25.87;;
8640;SDS011;4358;42.100;25.222;2023-12-14T08:56:37;39.50;;;24.93;;
8640;SDS011;4358;42.100;25.222;2023-12-14T08:59:04;35.57;;;24.67;;
8640;SDS011;4358;42.100;25.222;2023-12-14T09:01:31;38.90;;;26.33;;
8640;SDS011;4358;42.100;25.222;2023-12-14T09:03:58;40.13;;;26.30;;
8640;SDS011;4358;42.100;25.222;2023-12-14T09:06:25;38.27;;;25.20;;
8640;SDS011;4358;42.100;25.222;2023-12-14T09:08:52;42.10;;;26.70;;
8640;SDS011;4358;42.100;25.222;2023-12-14T09:11:19;42.53;;;28.10;;
8640;SDS011;4358;42.100;25.222;2023-12-14T09:13:47;39.17;;;25.67;;
8640;SDS011;4358;42.100;25.222;2023-12-14T09:16:16;40.90;;;25.87;;
8640;SDS011;4358;42.100;25.222;2023-12-14T09:18:43;35.70;;;25.67;;
8640;SDS011;4358;42.100;25.222;2023-12-14T09:21:10;40.93;;;27.13;;
8640;SDS011;4358;42.100;25.222;2023-12-14T09:23:37;39.93;;;24.97;;
8640;SDS011;4358;42.100;25.222;2023-12-14T09:26:06;38.00;;;24.07;;
8640;SDS011;4358;42.100;25.222;2023-12-14T09:28:34;37.57;;;25.77;;
8640;SDS011;4358;42.100;25.222;2023-12-14T09:31:02;37.63;;;26.43;;
8640;SDS011;4358;42.100;25.222;2023-12-14T09:33:29;39.03;;;24.83;;
8640;SDS011;4358;42.100;25.222;2023-12-14T09:35:56;38.27;;;25.00;;
8640;SDS011;4358;42.100;25.222;2023-12-14T09:38:23;38.93;;;26.07;;
8640;SDS011;4358;42.100;25.222;2023-12-14T09:40:50;41.30;;;27.30;;
8640;SDS011;4358;42.100;25.222;2023-12-14T09:43:17;39.63;;;27.20;;
8640;SDS011;4358;42.100;25.222;2023-12-14T09:45:45;44.63;;;27.27;;
8640;SDS011;4358;42.100;25.222;2023-12-14T09:48:15;62.90;;;42.50;;
8640;SDS011;4358;42.100;25.222;2023-12-14T09:50:43;40.57;;;27.60;;
8640;SDS011;4358;42.100;25.222;2023-12-14T09:53:10;42.53;;;26.13;;
8640;SDS011;4358;42.100;25.222;2023-12-14T09:55:37;46.53;;;29.47;;
8640;SDS011;4358;42.100;25.222;2023-12-14T09:58:04;41.07;;;27.17;;
8640;SDS011;4358;42.100;25.222;2023-12-14T10:00:36;45.80;;;30.53;;
8640;SDS011;4358;42.100;25.222;2023-12-14T10:03:24;38.30;;;25.50;;
8640;SDS011;4358;42.100;25.222;2023-12-14T10:05:53;41.33;;;27.57;;
8640;SDS011;4358;42.100;25.222;2023-12-14T10:08:21;60.07;;;28.77;;
8640;SDS011;4358;42.100;25.222;2023-12-14T10:10:49;38.87;;;25.07;;
8640;SDS011;4358;42.100;25.222;2023-12-14T10:13:18;41.87;;;25.77;;
8640;SDS011;4358;42.100;25.222;2023-12-14T10:15:45;38.10;;;26.57;;
8640;SDS011;4358;42.100;25.222;2023-12-14T10:18:19;35.73;;;24.70;;
8640;SDS011;4358;42.100;25.222;2023-12-14T10:20:51;32.37;;;22.73;;
8640;SDS011;4358;42.100;25.222;2023-12-14T10:23:18;35.20;;;24.43;;
8640;SDS011;4358;42.100;25.222;2023-12-14T10:25:46;37.33;;;27.37;;
8640;SDS011;4358;42.100;25.222;2023-12-14T10:28:13;34.90;;;24.90;;
8640;SDS011;4358;42.100;25.222;2023-12-14T10:30:40;35.43;;;25.27;;
8640;SDS011;4358;42.100;25.222;2023-12-14T10:33:07;35.80;;;24.83;;
8640;SDS011;4358;42.100;25.222;2023-12-14T10:35:35;32.93;;;23.70;;
8640;SDS011;4358;42.100;25.222;2023-12-14T10:38:04;41.63;;;28.17;;
8640;SDS011;4358;42.100;25.222;2023-12-14T10:40:31;38.10;;;26.07;;
8640;SDS011;4358;42.100;25.222;2023-12-14T10:42:59;35.83;;;23.43;;
8640;SDS011;4358;42.100;25.222;2023-12-14T10:45:30;27.97;;;21.17;;
8640;SDS011;4358;42.100;25.222;2023-12-14T10:47:59;35.00;;;25.07;;
8640;SDS011;4358;42.100;25.222;2023-12-14T10:50:29;38.10;;;25.33;;
8640;SDS011;4358;42.100;25.222;2023-12-14T10:52:56;38.70;;;25.60;;
8640;SDS011;4358;42.100;25.222;2023-12-14T10:55:27;43.27;;;27.70;;
8640;SDS011;4358;42.100;25.222;2023-12-14T10:57:57;35.30;;;24.80;;
8640;SDS011;4358;42.100;25.222;2023-12-14T11:00:26;35.57;;;23.43;;
8640;SDS011;4358;42.100;25.222;2023-12-14T11:02:54;33.33;;;22.47;;
8640;SDS011;4358;42.100;25.222;2023-12-14T11:05:22;32.87;;;23.13;;
8640;SDS011;4358;42.100;25.222;2023-12-14T11:07:55;29.20;;;21.73;;
8640;SDS011;4358;42.100;25.222;2023-12-14T11:10:27;33.47;;;22.17;;
8640;SDS011;4358;42.100;25.222;2023-12-14T11:13:02;34.80;;;23.17;;
8640;SDS011;4358;42.100;25.222;2023-12-14T11:15:30;30.23;;;20.67;;
8640;SDS011;4358;42.100;25.222;2023-12-14T11:20:50;34.93;;;21.00;;
8640;SDS011;4358;42.100;25.222;2023-12-14T11:23:26;28.63;;;21.13;;
8640;SDS011;4358;42.100;25.222;2023-12-14T11:25:58;31.30;;;20.87;;
8640;SDS011;4358;42.100;25.222;2023-12-14T11:28:28;29.83;;;19.40;;
8640;SDS011;4358;42.100;25.222;2023-12-14T11:30:56;33.77;;;20.70;;
8640;SDS011;4358;42.100;25.222;2023-12-14T11:33:23;29.57;;;20.43;;
8640;SDS011;4358;42.100;25.222;2023-12-14T11:35:52;32.77;;;20.73;;
8640;SDS011;4358;42.100;25.222;2023-12-14T11:38:19;37.43;;;22.40;;
8640;SDS011;4358;42.100;25.222;2023-12-14T11:40:49;32.20;;;21.93;;
8640;SDS011;4358;42.100;25.222;2023-12-14T11:43:17;35.67;;;22.97;;
8640;SDS011;4358;42.100;25.222;2023-12-14T11:45:45;37.63;;;23.77;;
8640;SDS011;4358;42.100;25.222;2023-12-14T11:48:12;42.73;;;27.10;;
8640;SDS011;4358;42.100;25.222;2023-12-14T11:50:40;34.33;;;22.57;;
8640;SDS011;4358;42.100;25.222;2023-12-14T11:53:09;34.40;;;22.63;;
8640;SDS011;4358;42.100;25.222;2023-12-14T11:55:37;34.70;;;23.47;;
8640;SDS011;4358;42.100;25.222;2023-12-14T11:58:06;31.03;;;21.00;;
8640;SDS011;4358;42.100;25.222;2023-12-14T12:00:35;32.00;;;22.63;;
8640;SDS011;4358;42.100;25.222;2023-12-14T12:03:08;30.27;;;21.07;;
8640;SDS011;4358;42.100;25.222;2023-12-14T12:05:37;31.03;;;19.27;;
8640;SDS011;4358;42.100;25.222;2023-12-14T12:08:05;26.77;;;19.83;;
8640;SDS011;4358;42.100;25.222;2023-12-14T12:10:32;29.07;;;20.53;;
8640;SDS011;4358;42.100;25.222;2023-12-14T12:13:04;41.67;;;24.10;;
8640;SDS011;4358;42.100;25.222;2023-12-14T12:15:33;31.87;;;21.53;;
8640;SDS011;4358;42.100;25.222;2023-12-14T12:18:03;35.13;;;22.07;;
8640;SDS011;4358;42.100;25.222;2023-12-14T12:20:32;33.53;;;23.20;;
8640;SDS011;4358;42.100;25.222;2023-12-14T12:23:00;42.07;;;25.07;;
8640;SDS011;4358;42.100;25.222;2023-12-14T12:25:28;38.13;;;25.07;;
8640;SDS011;4358;42.100;25.222;2023-12-14T12:27:55;40.93;;;25.93;;
8640;SDS011;4358;42.100;25.222;2023-12-14T12:30:22;42.60;;;25.93;;
8640;SDS011;4358;42.100;25.222;2023-12-14T12:32:50;37.57;;;26.00;;
8640;SDS011;4358;42.100;25.222;2023-12-14T12:35:17;34.03;;;25.47;;
8640;SDS011;4358;42.100;25.222;2023-12-14T12:37:44;38.63;;;25.60;;
8640;SDS011;4358;42.100;25.222;2023-12-14T12:40:11;32.33;;;24.10;;
8640;SDS011;4358;42.100;25.222;2023-12-14T12:42:41;38.50;;;27.20;;
8640;SDS011;4358;42.100;25.222;2023-12-14T12:45:08;37.83;;;25.50;;
8640;SDS011;4358;42.100;25.222;2023-12-14T12:47:36;37.50;;;27.50;;
8640;SDS011;4358;42.100;25.222;2023-12-14T12:50:06;37.67;;;24.30;;
8640;SDS011;4358;42.100;25.222;2023-12-14T12:52:34;39.77;;;27.13;;
8640;SDS011;4358;42.100;25.222;2023-12-14T12:55:00;39.87;;;26.43;;
8640;SDS011;4358;42.100;25.222;2023-12-14T12:57:28;39.27;;;27.27;;
8640;SDS011;4358;42.100;25.222;2023-12-14T12:59:55;37.13;;;24.30;;
8640;SDS011;4358;42.100;25.222;2023-12-14T13:02:22;40.43;;;25.47;;
8640;SDS011;4358;42.100;25.222;2023-12-14T13:04:49;40.37;;;26.87;;
8640;SDS011;4358;42.100;25.222;2023-12-14T13:07:18;37.30;;;26.27;;
8640;SDS011;4358;42.100;25.222;2023-12-14T13:09:45;40.73;;;25.30;;
8640;SDS011;4358;42.100;25.222;2023-12-14T13:12:12;34.70;;;23.80;;
8640;SDS011;4358;42.100;25.222;2023-12-14T13:14:39;36.33;;;24.60;;
8640;SDS011;4358;42.100;25.222;2023-12-14T13:17:07;36.27;;;24.33;;
8640;SDS011;4358;42.100;25.222;2023-12-14T13:19:34;32.43;;;23.37;;
8640;SDS011;4358;42.100;25.222;2023-12-14T13:22:00;35.30;;;22.57;;
8640;SDS011;4358;42.100;25.222;2023-12-14T13:24:29;33.47;;;23.23;;
8640;SDS011;4358;42.100;25.222;2023-12-14T13:26:56;33.83;;;22.50;;
8640;SDS011;4358;42.100;25.222;2023-12-14T13:29:23;32.47;;;22.47;;
8640;SDS011;4358;42.100;25.222;2023-12-14T13:31:50;33.20;;;22.17;;
8640;SDS011;4358;42.100;25.222;2023-12-14T13:34:17;34.73;;;24.67;;
8640;SDS011;4358;42.100;25.222;2023-12-14T13:36:44;35.60;;;25.00;;
8640;SDS011;4358;42.100;25.222;2023-12-14T13:39:12;30.97;;;21.87;;
8640;SDS011;4358;42.100;25.222;2023-12-14T13:41:41;34.90;;;23.63;;
8640;SDS011;4358;42.100;25.222;2023-12-14T13:44:08;33.50;;;23.57;;
8640;SDS011;4358;42.100;25.222;2023-12-14T13:46:35;36.63;;;23.73;;
8640;SDS011;4358;42.100;25.222;2023-12-14T13:49:02;39.07;;;25.90;;
8640;SDS011;4358;42.100;25.222;2023-12-14T13:51:29;39.47;;;26.97;;
8640;SDS011;4358;42.100;25.222;2023-12-14T13:53:55;28.97;;;22.23;;
8640;SDS011;4358;42.100;25.222;2023-12-14T13:56:22;38.07;;;25.17;;
8640;SDS011;4358;42.100;25.222;2023-12-14T13:58:51;42.40;;;28.97;;
8640;SDS011;4358;42.100;25.222;2023-12-14T14:01:18;37.23;;;25.57;;
8640;SDS011;4358;42.100;25.222;2023-12-14T14:03:46;37.30;;;25.30;;
8640;SDS011;4358;42.100;25.222;2023-12-14T14:06:13;39.37;;;25.37;;
8640;SDS011;4358;42.100;25.222;2023-12-14T14:08:40;51.63;;;33.07;;
8640;SDS011;4358;42.100;25.222;2023-12-14T14:11:07;49.83;;;33.17;;
8640;SDS011;4358;42.100;25.222;2023-12-14T14:13:34;54.90;;;32.93;;
8640;SDS011;4358;42.100;25.222;2023-12-14T14:16:02;43.90;;;28.73;;
8640;SDS011;4358;42.100;25.222;2023-12-14T14:18:30;38.53;;;28.00;;
8640;SDS011;4358;42.100;25.222;2023-12-14T14:20:57;41.37;;;27.77;;
8640;SDS011;4358;42.100;25.222;2023-12-14T14:23:26;51.63;;;35.67;;
8640;SDS011;4358;42.100;25.222;2023-12-14T14:25:53;42.93;;;30.57;;
8640;SDS011;4358;42.100;25.222;2023-12-14T14:28:20;50.10;;;31.27;;
8640;SDS011;4358;42.100;25.222;2023-12-14T14:30:47;49.27;;;32.73;;
8640;SDS011;4358;42.100;25.222;2023-12-14T14:33:16;59.63;;;38.97;;
8640;SDS011;4358;42.100;25.222;2023-12-14T14:35:44;48.73;;;33.57;;
8640;SDS011;4358;42.100;25.222;2023-12-14T14:38:11;48.57;;;32.80;;
8640;SDS011;4358;42.100;25.222;2023-12-14T14:40:38;50.73;;;35.33;;